sensor_id;sensor_type;location;lat;lon;timestamp;P1;durP1;ratioP1;P2;durP2;ratioP2
55090;SDS011;40985;53.180;5.800;2022-07-23T00:00:50;11.82;;;6.85;;
55090;SDS011;40985;53.180;5.800;2022-07-23T00:03:16;8.45;;;6.97;;
55090;SDS011;40985;53.180;5.800;2022-07-23T00:05:41;11.98;;;6.85;;
55090;SDS011;40985;53.180;5.800;2022-07-23T00:08:07;10.18;;;7.47;;
55090;SDS011;40985;53.180;5.800;2022-07-23T00:10:33;8.68;;;7.70;;
55090;SDS011;40985;53.180;5.800;2022-07-23T00:12:59;8.45;;;7.50;;
55090;SDS011;40985;53.180;5.800;2022-07-23T00:15:25;8.95;;;7.10;;
55090;SDS011;40985;53.180;5.800;2022-07-23T00:17:51;8.75;;;7.82;;
55090;SDS011;40985;53.180;5.800;2022-07-23T00:20:17;8.90;;;7.85;;
55090;SDS011;40985;53.180;5.800;2022-07-23T00:22:49;9.77;;;6.97;;
55090;SDS011;40985;53.180;5.800;2022-07-23T00:25:16;9.80;;;7.75;;
55090;SDS011;40985;53.180;5.800;2022-07-23T00:27:43;8.98;;;6.78;;
55090;SDS011;40985;53.180;5.800;2022-07-23T00:30:09;8.02;;;7.30;;
55090;SDS011;40985;53.180;5.800;2022-07-23T00:32:48;8.63;;;7.35;;
55090;SDS011;40985;53.180;5.800;2022-07-23T00:35:16;7.00;;;6.25;;
55090;SDS011;40985;53.180;5.800;2022-07-23T00:37:44;7.00;;;6.40;;
55090;SDS011;40985;53.180;5.800;2022-07-23T00:40:10;7.55;;;6.78;;
55090;SDS011;40985;53.180;5.800;2022-07-23T00:42:36;14.43;;;7.18;;
55090;SDS011;40985;53.180;5.800;2022-07-23T00:45:02;7.90;;;5.57;;
55090;SDS011;40985;53.180;5.800;2022-07-23T00:47:28;7.10;;;6.13;;
55090;SDS011;40985;53.180;5.800;2022-07-23T00:49:54;6.70;;;6.00;;
55090;SDS011;40985;53.180;5.800;2022-07-23T00:52:19;8.25;;;6.53;;
55090;SDS011;40985;53.180;5.800;2022-07-23T00:54:45;10.02;;;7.00;;
55090;SDS011;40985;53.180;5.800;2022-07-23T00:57:11;7.53;;;5.75;;
55090;SDS011;40985;53.180;5.800;2022-07-23T00:59:40;8.05;;;6.13;;
55090;SDS011;40985;53.180;5.800;2022-07-23T01:02:06;7.72;;;6.18;;
55090;SDS011;40985;53.180;5.800;2022-07-23T01:04:32;8.30;;;6.63;;
55090;SDS011;40985;53.180;5.800;2022-07-23T01:06:58;8.25;;;6.40;;
55090;SDS011;40985;53.180;5.800;2022-07-23T01:09:24;7.35;;;5.78;;
55090;SDS011;40985;53.180;5.800;2022-07-23T01:11:50;8.90;;;7.13;;
55090;SDS011;40985;53.180;5.800;2022-07-23T01:14:17;8.82;;;7.07;;
55090;SDS011;40985;53.180;5.800;2022-07-23T01:16:45;8.02;;;6.53;;
55090;SDS011;40985;53.180;5.800;2022-07-23T01:19:12;7.97;;;7.03;;
55090;SDS011;40985;53.180;5.800;2022-07-23T01:21:46;9.05;;;6.43;;
55090;SDS011;40985;53.180;5.800;2022-07-23T01:24:13;7.47;;;5.85;;
55090;SDS011;40985;53.180;5.800;2022-07-23T01:26:41;9.95;;;5.72;;
55090;SDS011;40985;53.180;5.800;2022-07-23T01:29:08;16.92;;;6.28;;
55090;SDS011;40985;53.180;5.800;2022-07-23T01:31:34;11.70;;;6.97;;
55090;SDS011;40985;53.180;5.800;2022-07-23T01:34:00;13.57;;;7.82;;
55090;SDS011;40985;53.180;5.800;2022-07-23T01:36:26;10.68;;;7.68;;
55090;SDS011;40985;53.180;5.800;2022-07-23T01:38:52;10.05;;;6.90;;
55090;SDS011;40985;53.180;5.800;2022-07-23T01:41:17;8.23;;;5.82;;
55090;SDS011;40985;53.180;5.800;2022-07-23T01:43:43;10.70;;;6.20;;
55090;SDS011;40985;53.180;5.800;2022-07-23T01:46:09;10.10;;;6.55;;
55090;SDS011;40985;53.180;5.800;2022-07-23T01:48:34;7.18;;;6.10;;
55090;SDS011;40985;53.180;5.800;2022-07-23T01:51:00;9.52;;;6.60;;
55090;SDS011;40985;53.180;5.800;2022-07-23T01:53:26;11.07;;;7.00;;
55090;SDS011;40985;53.180;5.800;2022-07-23T01:55:52;6.95;;;5.85;;
55090;SDS011;40985;53.180;5.800;2022-07-23T01:58:17;7.75;;;5.47;;
55090;SDS011;40985;53.180;5.800;2022-07-23T02:00:43;7.32;;;5.32;;
55090;SDS011;40985;53.180;5.800;2022-07-23T02:03:09;8.40;;;5.25;;
55090;SDS011;40985;53.180;5.800;2022-07-23T02:05:34;9.63;;;5.85;;
55090;SDS011;40985;53.180;5.800;2022-07-23T02:08:00;9.20;;;6.07;;
55090;SDS011;40985;53.180;5.800;2022-07-23T02:10:26;9.05;;;6.32;;
55090;SDS011;40985;53.180;5.800;2022-07-23T02:12:52;7.90;;;5.60;;
55090;SDS011;40985;53.180;5.800;2022-07-23T02:15:18;7.22;;;5.70;;
55090;SDS011;40985;53.180;5.800;2022-07-23T02:17:44;10.98;;;6.47;;
55090;SDS011;40985;53.180;5.800;2022-07-23T02:20:10;8.98;;;6.05;;
55090;SDS011;40985;53.180;5.800;2022-07-23T02:22:36;8.38;;;5.13;;
55090;SDS011;40985;53.180;5.800;2022-07-23T02:25:03;5.80;;;5.30;;
55090;SDS011;40985;53.180;5.800;2022-07-23T02:27:29;7.68;;;5.10;;
55090;SDS011;40985;53.180;5.800;2022-07-23T02:29:55;7.13;;;5.47;;
55090;SDS011;40985;53.180;5.800;2022-07-23T02:32:21;5.00;;;4.55;;
55090;SDS011;40985;53.180;5.800;2022-07-23T02:34:47;5.47;;;4.57;;
55090;SDS011;40985;53.180;5.800;2022-07-23T02:37:13;5.63;;;3.63;;
55090;SDS011;40985;53.180;5.800;2022-07-23T02:39:39;4.50;;;4.13;;
55090;SDS011;40985;53.180;5.800;2022-07-23T02:42:04;3.80;;;3.50;;
55090;SDS011;40985;53.180;5.800;2022-07-23T02:44:30;4.38;;;3.33;;
55090;SDS011;40985;53.180;5.800;2022-07-23T02:46:56;4.88;;;4.05;;
55090;SDS011;40985;53.180;5.800;2022-07-23T02:49:22;5.22;;;4.35;;
55090;SDS011;40985;53.180;5.800;2022-07-23T02:51:47;5.10;;;4.03;;
55090;SDS011;40985;53.180;5.800;2022-07-23T02:54:13;6.78;;;4.50;;
55090;SDS011;40985;53.180;5.800;2022-07-23T02:56:39;5.15;;;4.53;;
55090;SDS011;40985;53.180;5.800;2022-07-23T02:59:04;5.47;;;4.30;;
55090;SDS011;40985;53.180;5.800;2022-07-23T03:01:30;5.30;;;4.68;;
55090;SDS011;40985;53.180;5.800;2022-07-23T03:03:56;6.68;;;4.13;;
55090;SDS011;40985;53.180;5.800;2022-07-23T03:06:21;5.72;;;4.60;;
55090;SDS011;40985;53.180;5.800;2022-07-23T03:08:47;5.55;;;4.28;;
55090;SDS011;40985;53.180;5.800;2022-07-23T03:11:13;7.43;;;5.30;;
55090;SDS011;40985;53.180;5.800;2022-07-23T03:13:39;8.05;;;5.15;;
55090;SDS011;40985;53.180;5.800;2022-07-23T03:16:06;5.38;;;4.78;;
55090;SDS011;40985;53.180;5.800;2022-07-23T03:18:32;6.95;;;4.95;;
55090;SDS011;40985;53.180;5.800;2022-07-23T03:20:58;8.40;;;5.00;;
55090;SDS011;40985;53.180;5.800;2022-07-23T03:23:24;5.28;;;4.78;;
55090;SDS011;40985;53.180;5.800;2022-07-23T03:25:50;9.63;;;5.22;;
55090;SDS011;40985;53.180;5.800;2022-07-23T03:28:16;4.90;;;4.45;;
55090;SDS011;40985;53.180;5.800;2022-07-23T03:30:43;6.60;;;4.70;;
55090;SDS011;40985;53.180;5.800;2022-07-23T03:33:13;4.75;;;4.40;;
55090;SDS011;40985;53.180;5.800;2022-07-23T03:35:41;6.00;;;4.70;;
55090;SDS011;40985;53.180;5.800;2022-07-23T03:38:08;5.47;;;4.78;;
55090;SDS011;40985;53.180;5.800;2022-07-23T03:40:33;4.88;;;4.38;;
55090;SDS011;40985;53.180;5.800;2022-07-23T03:42:59;6.82;;;4.90;;
55090;SDS011;40985;53.180;5.800;2022-07-23T03:45:24;5.78;;;4.90;;
55090;SDS011;40985;53.180;5.800;2022-07-23T03:47:50;10.60;;;5.32;;
55090;SDS011;40985;53.180;5.800;2022-07-23T03:50:16;4.95;;;4.45;;
55090;SDS011;40985;53.180;5.800;2022-07-23T03:52:42;6.03;;;4.43;;
55090;SDS011;40985;53.180;5.800;2022-07-23T03:55:07;8.25;;;5.72;;
55090;SDS011;40985;53.180;5.800;2022-07-23T03:57:33;5.22;;;4.60;;
55090;SDS011;40985;53.180;5.800;2022-07-23T03:59:59;7.43;;;5.18;;
55090;SDS011;40985;53.180;5.800;2022-07-23T04:02:24;5.63;;;5.10;;
55090;SDS011;40985;53.180;5.800;2022-07-23T04:04:50;8.18;;;5.63;;
55090;SDS011;40985;53.180;5.800;2022-07-23T04:07:16;6.55;;;5.95;;
55090;SDS011;40985;53.180;5.800;2022-07-23T04:09:43;5.70;;;5.10;;
55090;SDS011;40985;53.180;5.800;2022-07-23T04:12:09;7.15;;;5.45;;
55090;SDS011;40985;53.180;5.800;2022-07-23T04:14:35;6.43;;;5.25;;
55090;SDS011;40985;53.180;5.800;2022-07-23T04:17:01;5.97;;;5.38;;
55090;SDS011;40985;53.180;5.800;2022-07-23T04:19:27;8.15;;;5.68;;
55090;SDS011;40985;53.180;5.800;2022-07-23T04:21:53;7.30;;;5.85;;
55090;SDS011;40985;53.180;5.800;2022-07-23T04:24:19;8.50;;;5.85;;
55090;SDS011;40985;53.180;5.800;2022-07-23T04:26:44;6.60;;;5.32;;
55090;SDS011;40985;53.180;5.800;2022-07-23T04:29:10;5.57;;;4.80;;
55090;SDS011;40985;53.180;5.800;2022-07-23T04:31:36;5.78;;;5.22;;
55090;SDS011;40985;53.180;5.800;2022-07-23T04:34:02;7.88;;;6.25;;
55090;SDS011;40985;53.180;5.800;2022-07-23T04:36:28;6.50;;;5.22;;
55090;SDS011;40985;53.180;5.800;2022-07-23T04:38:54;6.80;;;5.40;;
55090;SDS011;40985;53.180;5.800;2022-07-23T04:41:20;7.22;;;5.57;;
55090;SDS011;40985;53.180;5.800;2022-07-23T04:43:46;8.63;;;5.03;;
55090;SDS011;40985;53.180;5.800;2022-07-23T04:46:11;5.78;;;5.03;;
55090;SDS011;40985;53.180;5.800;2022-07-23T04:48:37;7.03;;;4.93;;
55090;SDS011;40985;53.180;5.800;2022-07-23T04:51:03;5.10;;;4.63;;
55090;SDS011;40985;53.180;5.800;2022-07-23T04:53:29;5.82;;;4.35;;
55090;SDS011;40985;53.180;5.800;2022-07-23T04:55:55;6.45;;;4.90;;
55090;SDS011;40985;53.180;5.800;2022-07-23T04:58:21;5.65;;;5.05;;
55090;SDS011;40985;53.180;5.800;2022-07-23T05:00:47;10.15;;;4.97;;
55090;SDS011;40985;53.180;5.800;2022-07-23T05:03:12;6.22;;;4.72;;
55090;SDS011;40985;53.180;5.800;2022-07-23T05:05:38;5.43;;;4.65;;
55090;SDS011;40985;53.180;5.800;2022-07-23T05:08:04;7.95;;;5.10;;
55090;SDS011;40985;53.180;5.800;2022-07-23T05:10:30;6.68;;;5.00;;
55090;SDS011;40985;53.180;5.800;2022-07-23T05:12:56;6.65;;;4.90;;
55090;SDS011;40985;53.180;5.800;2022-07-23T05:15:22;7.60;;;4.70;;
55090;SDS011;40985;53.180;5.800;2022-07-23T05:17:47;7.13;;;4.40;;
55090;SDS011;40985;53.180;5.800;2022-07-23T05:20:13;6.50;;;5.07;;
55090;SDS011;40985;53.180;5.800;2022-07-23T05:22:39;10.02;;;4.57;;
55090;SDS011;40985;53.180;5.800;2022-07-23T05:25:05;5.45;;;4.30;;
55090;SDS011;40985;53.180;5.800;2022-07-23T05:27:31;4.85;;;4.35;;
55090;SDS011;40985;53.180;5.800;2022-07-23T05:29:57;5.13;;;4.18;;
55090;SDS011;40985;53.180;5.800;2022-07-23T05:32:23;7.65;;;3.90;;
55090;SDS011;40985;53.180;5.800;2022-07-23T05:34:48;4.55;;;3.85;;
55090;SDS011;40985;53.180;5.800;2022-07-23T05:37:14;2.78;;;2.67;;
55090;SDS011;40985;53.180;5.800;2022-07-23T05:39:40;10.73;;;4.93;;
55090;SDS011;40985;53.180;5.800;2022-07-23T05:42:06;3.22;;;2.92;;
55090;SDS011;40985;53.180;5.800;2022-07-23T05:44:32;6.05;;;3.10;;
55090;SDS011;40985;53.180;5.800;2022-07-23T05:46:58;3.22;;;2.90;;
55090;SDS011;40985;53.180;5.800;2022-07-23T05:49:24;2.28;;;1.75;;
55090;SDS011;40985;53.180;5.800;2022-07-23T05:51:50;2.35;;;1.20;;
55090;SDS011;40985;53.180;5.800;2022-07-23T05:54:15;2.45;;;0.98;;
55090;SDS011;40985;53.180;5.800;2022-07-23T05:56:41;3.92;;;1.10;;
55090;SDS011;40985;53.180;5.800;2022-07-23T05:59:07;4.53;;;0.80;;
55090;SDS011;40985;53.180;5.800;2022-07-23T06:01:33;1.80;;;0.30;;
55090;SDS011;40985;53.180;5.800;2022-07-23T06:03:58;2.03;;;0.30;;
55090;SDS011;40985;53.180;5.800;2022-07-23T06:06:24;0.30;;;0.10;;
55090;SDS011;40985;53.180;5.800;2022-07-23T06:08:50;1.77;;;0.20;;
55090;SDS011;40985;53.180;5.800;2022-07-23T06:11:15;1.83;;;0.20;;
55090;SDS011;40985;53.180;5.800;2022-07-23T06:13:41;2.10;;;0.10;;
55090;SDS011;40985;53.180;5.800;2022-07-23T06:16:07;1.58;;;0.13;;
55090;SDS011;40985;53.180;5.800;2022-07-23T06:18:32;0.77;;;0.20;;
55090;SDS011;40985;53.180;5.800;2022-07-23T06:20:58;0.40;;;0.10;;
55090;SDS011;40985;53.180;5.800;2022-07-23T06:23:24;0.75;;;0.43;;
55090;SDS011;40985;53.180;5.800;2022-07-23T06:25:49;2.55;;;0.10;;
55090;SDS011;40985;53.180;5.800;2022-07-23T06:28:15;1.10;;;0.10;;
55090;SDS011;40985;53.180;5.800;2022-07-23T06:30:41;2.88;;;0.10;;
55090;SDS011;40985;53.180;5.800;2022-07-23T06:33:07;0.60;;;0.10;;
55090;SDS011;40985;53.180;5.800;2022-07-23T06:35:32;0.70;;;0.10;;
55090;SDS011;40985;53.180;5.800;2022-07-23T06:37:59;1.02;;;0.20;;
55090;SDS011;40985;53.180;5.800;2022-07-23T06:40:24;0.63;;;0.20;;
55090;SDS011;40985;53.180;5.800;2022-07-23T06:42:50;1.20;;;0.10;;
55090;SDS011;40985;53.180;5.800;2022-07-23T06:45:16;1.98;;;0.10;;
55090;SDS011;40985;53.180;5.800;2022-07-23T06:47:42;1.52;;;0.10;;
55090;SDS011;40985;53.180;5.800;2022-07-23T06:50:08;0.20;;;0.00;;
55090;SDS011;40985;53.180;5.800;2022-07-23T06:52:34;0.20;;;0.03;;
55090;SDS011;40985;53.180;5.800;2022-07-23T06:55:00;1.48;;;0.10;;
55090;SDS011;40985;53.180;5.800;2022-07-23T06:57:25;2.97;;;0.38;;
55090;SDS011;40985;53.180;5.800;2022-07-23T06:59:51;0.10;;;0.00;;
55090;SDS011;40985;53.180;5.800;2022-07-23T07:02:18;1.00;;;0.00;;
55090;SDS011;40985;53.180;5.800;2022-07-23T07:04:43;2.15;;;0.00;;
55090;SDS011;40985;53.180;5.800;2022-07-23T07:07:09;1.75;;;0.10;;
55090;SDS011;40985;53.180;5.800;2022-07-23T07:09:34;2.03;;;0.10;;
55090;SDS011;40985;53.180;5.800;2022-07-23T07:12:00;0.75;;;0.05;;
55090;SDS011;40985;53.180;5.800;2022-07-23T07:14:26;0.45;;;0.00;;
55090;SDS011;40985;53.180;5.800;2022-07-23T07:16:52;0.45;;;0.00;;
55090;SDS011;40985;53.180;5.800;2022-07-23T07:19:18;0.38;;;0.10;;
55090;SDS011;40985;53.180;5.800;2022-07-23T07:21:43;0.47;;;0.10;;
55090;SDS011;40985;53.180;5.800;2022-07-23T07:24:09;0.70;;;0.00;;
55090;SDS011;40985;53.180;5.800;2022-07-23T07:26:35;0.40;;;0.00;;
55090;SDS011;40985;53.180;5.800;2022-07-23T07:29:00;0.73;;;0.05;;
55090;SDS011;40985;53.180;5.800;2022-07-23T07:31:27;0.50;;;0.00;;
55090;SDS011;40985;53.180;5.800;2022-07-23T07:33:53;1.08;;;0.00;;
55090;SDS011;40985;53.180;5.800;2022-07-23T07:36:21;0.88;;;0.10;;
55090;SDS011;40985;53.180;5.800;2022-07-23T07:38:47;2.08;;;0.10;;
55090;SDS011;40985;53.180;5.800;2022-07-23T07:41:13;1.00;;;0.10;;
55090;SDS011;40985;53.180;5.800;2022-07-23T07:43:39;3.20;;;0.10;;
55090;SDS011;40985;53.180;5.800;2022-07-23T07:46:04;2.00;;;0.10;;
55090;SDS011;40985;53.180;5.800;2022-07-23T07:48:31;0.82;;;0.03;;
55090;SDS011;40985;53.180;5.800;2022-07-23T07:50:57;5.00;;;0.10;;
55090;SDS011;40985;53.180;5.800;2022-07-23T07:53:23;1.40;;;0.20;;
55090;SDS011;40985;53.180;5.800;2022-07-23T07:55:48;1.13;;;0.10;;
55090;SDS011;40985;53.180;5.800;2022-07-23T07:58:14;2.25;;;0.10;;
55090;SDS011;40985;53.180;5.800;2022-07-23T08:00:40;1.10;;;0.10;;
55090;SDS011;40985;53.180;5.800;2022-07-23T08:03:05;1.92;;;0.10;;
55090;SDS011;40985;53.180;5.800;2022-07-23T08:05:31;3.13;;;0.10;;
55090;SDS011;40985;53.180;5.800;2022-07-23T08:07:57;2.75;;;0.10;;
55090;SDS011;40985;53.180;5.800;2022-07-23T08:10:24;0.80;;;0.10;;
55090;SDS011;40985;53.180;5.800;2022-07-23T08:12:52;1.08;;;0.10;;
55090;SDS011;40985;53.180;5.800;2022-07-23T08:15:20;1.00;;;0.13;;
55090;SDS011;40985;53.180;5.800;2022-07-23T08:17:47;2.78;;;0.10;;
55090;SDS011;40985;53.180;5.800;2022-07-23T08:20:14;1.27;;;0.10;;
55090;SDS011;40985;53.180;5.800;2022-07-23T08:22:44;0.93;;;0.10;;
55090;SDS011;40985;53.180;5.800;2022-07-23T08:27:57;2.30;;;0.10;;
55090;SDS011;40985;53.180;5.800;2022-07-23T08:30:24;0.60;;;0.10;;
55090;SDS011;40985;53.180;5.800;2022-07-23T08:32:51;0.98;;;0.10;;
55090;SDS011;40985;53.180;5.800;2022-07-23T08:35:18;1.02;;;0.00;;
55090;SDS011;40985;53.180;5.800;2022-07-23T08:37:47;1.55;;;0.05;;
55090;SDS011;40985;53.180;5.800;2022-07-23T08:40:13;1.95;;;0.10;;
55090;SDS011;40985;53.180;5.800;2022-07-23T08:42:39;1.95;;;0.10;;
55090;SDS011;40985;53.180;5.800;2022-07-23T08:45:06;2.58;;;0.30;;
55090;SDS011;40985;53.180;5.800;2022-07-23T08:47:34;1.42;;;0.10;;
55090;SDS011;40985;53.180;5.800;2022-07-23T08:50:02;1.10;;;0.10;;
55090;SDS011;40985;53.180;5.800;2022-07-23T08:52:28;3.45;;;0.35;;
55090;SDS011;40985;53.180;5.800;2022-07-23T08:54:56;0.30;;;0.10;;
55090;SDS011;40985;53.180;5.800;2022-07-23T08:57:22;0.22;;;0.10;;
55090;SDS011;40985;53.180;5.800;2022-07-23T08:59:47;1.02;;;0.10;;
55090;SDS011;40985;53.180;5.800;2022-07-23T09:02:13;2.85;;;0.10;;
55090;SDS011;40985;53.180;5.800;2022-07-23T09:04:39;3.58;;;0.10;;
55090;SDS011;40985;53.180;5.800;2022-07-23T09:07:05;1.02;;;0.10;;
55090;SDS011;40985;53.180;5.800;2022-07-23T09:09:30;2.17;;;0.13;;
55090;SDS011;40985;53.180;5.800;2022-07-23T09:12:03;0.30;;;0.10;;
55090;SDS011;40985;53.180;5.800;2022-07-23T09:17:13;2.05;;;0.30;;
55090;SDS011;40985;53.180;5.800;2022-07-23T09:19:42;1.40;;;0.20;;
55090;SDS011;40985;53.180;5.800;2022-07-23T09:22:19;1.63;;;0.20;;
55090;SDS011;40985;53.180;5.800;2022-07-23T09:25:04;0.60;;;0.13;;
55090;SDS011;40985;53.180;5.800;2022-07-23T09:27:47;3.50;;;0.20;;
55090;SDS011;40985;53.180;5.800;2022-07-23T09:30:15;1.80;;;0.20;;
55090;SDS011;40985;53.180;5.800;2022-07-23T09:32:42;1.02;;;0.10;;
55090;SDS011;40985;53.180;5.800;2022-07-23T09:35:08;2.25;;;0.20;;
55090;SDS011;40985;53.180;5.800;2022-07-23T09:37:34;1.35;;;0.17;;
55090;SDS011;40985;53.180;5.800;2022-07-23T09:40:06;0.70;;;0.10;;
55090;SDS011;40985;53.180;5.800;2022-07-23T09:42:34;1.95;;;0.20;;
55090;SDS011;40985;53.180;5.800;2022-07-23T09:45:00;0.40;;;0.13;;
55090;SDS011;40985;53.180;5.800;2022-07-23T09:47:27;1.40;;;0.20;;
55090;SDS011;40985;53.180;5.800;2022-07-23T09:50:02;0.90;;;0.10;;
55090;SDS011;40985;53.180;5.800;2022-07-23T09:52:32;1.05;;;0.20;;
55090;SDS011;40985;53.180;5.800;2022-07-23T09:55:00;2.33;;;0.22;;
55090;SDS011;40985;53.180;5.800;2022-07-23T09:57:26;2.50;;;0.20;;
55090;SDS011;40985;53.180;5.800;2022-07-23T09:59:53;3.63;;;0.20;;
55090;SDS011;40985;53.180;5.800;2022-07-23T10:02:22;2.53;;;0.40;;
55090;SDS011;40985;53.180;5.800;2022-07-23T10:04:49;0.88;;;0.13;;
55090;SDS011;40985;53.180;5.800;2022-07-23T10:07:18;1.67;;;0.20;;
55090;SDS011;40985;53.180;5.800;2022-07-23T10:09:47;3.00;;;0.20;;
55090;SDS011;40985;53.180;5.800;2022-07-23T10:12:15;1.88;;;0.40;;
55090;SDS011;40985;53.180;5.800;2022-07-23T10:14:47;1.23;;;0.20;;
55090;SDS011;40985;53.180;5.800;2022-07-23T10:17:13;1.58;;;0.20;;
55090;SDS011;40985;53.180;5.800;2022-07-23T10:19:40;1.25;;;0.10;;
55090;SDS011;40985;53.180;5.800;2022-07-23T10:22:19;0.90;;;0.10;;
55090;SDS011;40985;53.180;5.800;2022-07-23T10:30:28;1.60;;;0.10;;
55090;SDS011;40985;53.180;5.800;2022-07-23T10:40:58;1.02;;;0.10;;
55090;SDS011;40985;53.180;5.800;2022-07-23T10:43:26;0.25;;;0.10;;
55090;SDS011;40985;53.180;5.800;2022-07-23T10:45:52;1.60;;;0.10;;
55090;SDS011;40985;53.180;5.800;2022-07-23T10:59:30;1.15;;;0.20;;
55090;SDS011;40985;53.180;5.800;2022-07-23T11:04:48;0.55;;;0.15;;
55090;SDS011;40985;53.180;5.800;2022-07-23T11:07:15;1.38;;;0.20;;
55090;SDS011;40985;53.180;5.800;2022-07-23T11:09:42;1.02;;;0.20;;
55090;SDS011;40985;53.180;5.800;2022-07-23T11:17:33;0.80;;;0.22;;
55090;SDS011;40985;53.180;5.800;2022-07-23T11:25:11;0.52;;;0.10;;
55090;SDS011;40985;53.180;5.800;2022-07-23T11:27:53;0.82;;;0.10;;
55090;SDS011;40985;53.180;5.800;2022-07-23T11:32:54;2.45;;;0.20;;
55090;SDS011;40985;53.180;5.800;2022-07-23T11:36:01;2.55;;;0.20;;
55090;SDS011;40985;53.180;5.800;2022-07-23T11:38:27;0.80;;;0.10;;
55090;SDS011;40985;53.180;5.800;2022-07-23T11:40:56;0.57;;;0.10;;
55090;SDS011;40985;53.180;5.800;2022-07-23T11:43:23;0.60;;;0.20;;
55090;SDS011;40985;53.180;5.800;2022-07-23T11:45:50;2.33;;;0.20;;
55090;SDS011;40985;53.180;5.800;2022-07-23T11:48:25;1.05;;;0.40;;
55090;SDS011;40985;53.180;5.800;2022-07-23T11:50:53;1.08;;;0.20;;
55090;SDS011;40985;53.180;5.800;2022-07-23T11:53:21;0.73;;;0.20;;
55090;SDS011;40985;53.180;5.800;2022-07-23T11:55:51;2.13;;;0.28;;
55090;SDS011;40985;53.180;5.800;2022-07-23T11:58:17;1.45;;;0.20;;
55090;SDS011;40985;53.180;5.800;2022-07-23T12:00:43;1.45;;;0.20;;
55090;SDS011;40985;53.180;5.800;2022-07-23T12:03:08;2.80;;;0.40;;
55090;SDS011;40985;53.180;5.800;2022-07-23T12:05:35;0.68;;;0.20;;
55090;SDS011;40985;53.180;5.800;2022-07-23T12:08:03;0.70;;;0.20;;
55090;SDS011;40985;53.180;5.800;2022-07-23T12:13:09;2.88;;;0.25;;
55090;SDS011;40985;53.180;5.800;2022-07-23T12:16:11;0.35;;;0.10;;
55090;SDS011;40985;53.180;5.800;2022-07-23T12:18:30;1.50;;;0.20;;
55090;SDS011;40985;53.180;5.800;2022-07-23T12:20:57;1.85;;;0.50;;
55090;SDS011;40985;53.180;5.800;2022-07-23T12:23:27;0.95;;;0.17;;
55090;SDS011;40985;53.180;5.800;2022-07-23T12:25:53;2.38;;;0.20;;
55090;SDS011;40985;53.180;5.800;2022-07-23T12:28:20;1.65;;;0.40;;
55090;SDS011;40985;53.180;5.800;2022-07-23T12:30:57;1.95;;;0.38;;
55090;SDS011;40985;53.180;5.800;2022-07-23T12:35:51;2.85;;;0.20;;
55090;SDS011;40985;53.180;5.800;2022-07-23T12:38:19;1.70;;;0.40;;
55090;SDS011;40985;53.180;5.800;2022-07-23T12:40:52;1.63;;;0.20;;
55090;SDS011;40985;53.180;5.800;2022-07-23T12:43:23;1.23;;;0.20;;
55090;SDS011;40985;53.180;5.800;2022-07-23T12:48:22;1.48;;;0.40;;
55090;SDS011;40985;53.180;5.800;2022-07-23T12:51:14;0.60;;;0.30;;
55090;SDS011;40985;53.180;5.800;2022-07-23T12:53:46;2.25;;;0.30;;
55090;SDS011;40985;53.180;5.800;2022-07-23T12:58:52;1.90;;;0.30;;
55090;SDS011;40985;53.180;5.800;2022-07-23T13:01:24;4.80;;;0.90;;
55090;SDS011;40985;53.180;5.800;2022-07-23T13:03:59;2.00;;;0.20;;
55090;SDS011;40985;53.180;5.800;2022-07-23T13:06:26;1.23;;;0.30;;
55090;SDS011;40985;53.180;5.800;2022-07-23T13:08:52;0.85;;;0.20;;
55090;SDS011;40985;53.180;5.800;2022-07-23T13:11:18;2.72;;;0.65;;
55090;SDS011;40985;53.180;5.800;2022-07-23T13:13:44;4.13;;;0.40;;
55090;SDS011;40985;53.180;5.800;2022-07-23T13:16:09;1.23;;;0.40;;
55090;SDS011;40985;53.180;5.800;2022-07-23T13:18:35;1.13;;;0.20;;
55090;SDS011;40985;53.180;5.800;2022-07-23T13:21:00;1.40;;;0.20;;
55090;SDS011;40985;53.180;5.800;2022-07-23T13:23:27;2.22;;;0.30;;
55090;SDS011;40985;53.180;5.800;2022-07-23T13:25:54;1.20;;;0.20;;
55090;SDS011;40985;53.180;5.800;2022-07-23T13:28:21;1.27;;;0.38;;
55090;SDS011;40985;53.180;5.800;2022-07-23T13:30:48;5.03;;;0.60;;
55090;SDS011;40985;53.180;5.800;2022-07-23T13:33:16;1.10;;;0.40;;
55090;SDS011;40985;53.180;5.800;2022-07-23T13:35:43;1.55;;;0.30;;
55090;SDS011;40985;53.180;5.800;2022-07-23T13:38:09;1.23;;;0.30;;
55090;SDS011;40985;53.180;5.800;2022-07-23T13:40:38;0.70;;;0.32;;
55090;SDS011;40985;53.180;5.800;2022-07-23T13:43:06;6.05;;;0.50;;
55090;SDS011;40985;53.180;5.800;2022-07-23T13:45:32;2.40;;;0.57;;
55090;SDS011;40985;53.180;5.800;2022-07-23T13:47:58;2.55;;;0.40;;
55090;SDS011;40985;53.180;5.800;2022-07-23T13:50:24;3.00;;;0.30;;
55090;SDS011;40985;53.180;5.800;2022-07-23T13:52:50;1.10;;;0.40;;
55090;SDS011;40985;53.180;5.800;2022-07-23T13:55:16;0.88;;;0.30;;
55090;SDS011;40985;53.180;5.800;2022-07-23T13:57:41;2.13;;;0.30;;
55090;SDS011;40985;53.180;5.800;2022-07-23T14:00:08;2.97;;;0.30;;
55090;SDS011;40985;53.180;5.800;2022-07-23T14:02:36;3.30;;;0.82;;
55090;SDS011;40985;53.180;5.800;2022-07-23T14:05:04;0.80;;;0.40;;
55090;SDS011;40985;53.180;5.800;2022-07-23T14:07:31;5.43;;;0.60;;
55090;SDS011;40985;53.180;5.800;2022-07-23T14:09:56;1.50;;;0.30;;
55090;SDS011;40985;53.180;5.800;2022-07-23T14:12:22;3.53;;;0.50;;
55090;SDS011;40985;53.180;5.800;2022-07-23T14:14:48;1.65;;;0.40;;
55090;SDS011;40985;53.180;5.800;2022-07-23T14:17:13;2.35;;;0.60;;
55090;SDS011;40985;53.180;5.800;2022-07-23T14:19:39;1.85;;;0.50;;
55090;SDS011;40985;53.180;5.800;2022-07-23T14:22:05;3.45;;;0.40;;
55090;SDS011;40985;53.180;5.800;2022-07-23T14:24:32;2.38;;;0.55;;
55090;SDS011;40985;53.180;5.800;2022-07-23T14:26:59;0.95;;;0.40;;
55090;SDS011;40985;53.180;5.800;2022-07-23T14:29:26;1.88;;;0.32;;
55090;SDS011;40985;53.180;5.800;2022-07-23T14:31:52;2.25;;;0.60;;
55090;SDS011;40985;53.180;5.800;2022-07-23T14:34:18;3.28;;;0.47;;
55090;SDS011;40985;53.180;5.800;2022-07-23T14:36:44;1.50;;;0.55;;
55090;SDS011;40985;53.180;5.800;2022-07-23T14:39:09;1.73;;;0.50;;
55090;SDS011;40985;53.180;5.800;2022-07-23T14:41:37;0.90;;;0.47;;
55090;SDS011;40985;53.180;5.800;2022-07-23T14:44:03;2.03;;;0.80;;
55090;SDS011;40985;53.180;5.800;2022-07-23T14:46:29;7.72;;;1.13;;
55090;SDS011;40985;53.180;5.800;2022-07-23T14:48:55;2.45;;;0.43;;
55090;SDS011;40985;53.180;5.800;2022-07-23T14:51:21;2.60;;;0.93;;
55090;SDS011;40985;53.180;5.800;2022-07-23T14:53:47;4.47;;;0.57;;
55090;SDS011;40985;53.180;5.800;2022-07-23T14:56:13;1.52;;;0.70;;
55090;SDS011;40985;53.180;5.800;2022-07-23T14:58:39;2.42;;;0.50;;
55090;SDS011;40985;53.180;5.800;2022-07-23T15:01:05;1.02;;;0.82;;
55090;SDS011;40985;53.180;5.800;2022-07-23T15:03:31;2.85;;;0.60;;
55090;SDS011;40985;53.180;5.800;2022-07-23T15:05:58;2.22;;;1.08;;
55090;SDS011;40985;53.180;5.800;2022-07-23T15:08:23;1.38;;;0.65;;
55090;SDS011;40985;53.180;5.800;2022-07-23T15:10:49;4.80;;;1.27;;
55090;SDS011;40985;53.180;5.800;2022-07-23T15:13:15;1.52;;;0.52;;
55090;SDS011;40985;53.180;5.800;2022-07-23T15:15:40;4.38;;;0.60;;
55090;SDS011;40985;53.180;5.800;2022-07-23T15:18:06;5.18;;;0.70;;
55090;SDS011;40985;53.180;5.800;2022-07-23T15:20:32;1.08;;;0.60;;
55090;SDS011;40985;53.180;5.800;2022-07-23T15:22:57;2.38;;;0.68;;
55090;SDS011;40985;53.180;5.800;2022-07-23T15:25:23;0.88;;;0.52;;
55090;SDS011;40985;53.180;5.800;2022-07-23T15:27:49;1.83;;;0.60;;
55090;SDS011;40985;53.180;5.800;2022-07-23T15:30:15;1.67;;;0.60;;
55090;SDS011;40985;53.180;5.800;2022-07-23T15:32:41;6.63;;;1.40;;
55090;SDS011;40985;53.180;5.800;2022-07-23T15:35:07;1.48;;;0.55;;
55090;SDS011;40985;53.180;5.800;2022-07-23T15:37:33;2.83;;;0.70;;
55090;SDS011;40985;53.180;5.800;2022-07-23T15:40:00;3.22;;;0.80;;
55090;SDS011;40985;53.180;5.800;2022-07-23T15:42:26;1.00;;;0.60;;